Time;durP1;ratioP1;P1;durP2;ratioP2;P2;SDS_P1;SDS_P2;PMS_P1;PMS_P2;Temp;Humidity;BMP_temperature;BMP_pressure;BME280_temperature;BME280_humidity;BME280_pressure;Samples;Min_cycle;Max_cycle;Signal;HPM_P1;HPM_P2
2022/02/02 00:00:13;;;;;;;;;13.25;8.75;;;;;13.07;66.38;101929.28;4883096;29;45434;-73
2022/02/02 00:02:47;;;;;;;;;8.25;8.25;;;;;13.08;66.78;101928.38;4881528;29;45248;-74
2022/02/02 00:05:26;;;;;;;;;13.00;9.25;;;;;13.09;66.77;101921.19;4883170;29;46677;-74
2022/02/02 00:07:58;;;;;;;;;6.25;6.25;;;;;13.09;66.47;101911.34;4882707;29;45360;-74
2022/02/02 00:13:02;;;;;;;;;9.50;7.50;;;;;13.11;66.68;101914.88;4883126;29;45165;-74
2022/02/02 00:20:59;;;;;;;;;8.25;8.25;;;;;13.14;66.27;101930.00;4871215;29;45940;-74
2022/02/02 00:23:31;;;;;;;;;7.00;7.00;;;;;13.11;66.27;101922.94;4879772;29;45311;-74
2022/02/02 00:26:02;;;;;;;;;8.25;8.25;;;;;13.11;66.00;101916.66;4882912;29;45344;-74
2022/02/02 00:28:32;;;;;;;;;9.50;8.75;;;;;13.14;66.15;101924.63;4883508;29;45359;-73
2022/02/02 00:31:02;;;;;;;;;6.00;6.00;;;;;13.13;66.21;101928.22;4882737;29;46158;-73
2022/02/02 00:33:32;;;;;;;;;7.00;6.00;;;;;13.10;65.99;101928.31;4884281;29;45429;-74
2022/02/02 00:36:12;;;;;;;;;8.00;7.75;;;;;13.07;66.67;101920.34;4884941;29;45455;-74
2022/02/02 00:38:38;;;;;;;;;6.25;6.25;;;;;13.09;66.36;101935.47;4876245;29;45239;-74
2022/02/02 00:41:03;;;;;;;;;9.25;8.00;;;;;13.13;66.35;101936.28;4885682;29;45315;-74
2022/02/02 00:43:29;;;;;;;;;9.00;8.00;;;;;13.12;66.29;101932.72;4886436;29;45200;-73
2022/02/02 00:45:54;;;;;;;;;5.50;5.50;;;;;13.11;66.15;101922.03;4886102;29;45369;-74
2022/02/02 00:48:25;;;;;;;;;7.75;7.75;;;;;13.14;66.13;101932.69;4885924;29;45459;-73
2022/02/02 00:50:51;;;;;;;;;7.00;7.00;;;;;13.11;66.27;101930.06;4883951;29;46427;-74
2022/02/02 00:53:17;;;;;;;;;9.25;8.75;;;;;13.09;66.22;101924.75;4885781;29;45837;-73
2022/02/02 00:55:43;;;;;;;;;8.50;6.75;;;;;13.13;66.19;101947.91;4886232;29;45335;-73
2022/02/02 00:58:08;;;;;;;;;7.25;6.25;;;;;13.14;66.13;101944.28;4886309;29;45308;-73
2022/02/02 01:00:34;;;;;;;;;7.75;6.00;;;;;13.14;66.17;101946.09;4885679;29;45244;-74
2022/02/02 01:02:59;;;;;;;;;6.75;6.25;;;;;13.13;66.21;101949.66;4900516;29;45486;-74
2022/02/02 01:05:24;;;;;;;;;9.25;6.25;;;;;13.10;66.10;101939.91;4884784;29;45350;-74
2022/02/02 01:18:24;;;;;;;;;8.25;8.00;;;;;13.12;66.21;101947.94;4885943;29;45297;-74
2022/02/02 01:20:56;;;;;;;;;8.00;6.00;;;;;13.13;66.12;101952.34;4872953;29;47017;-74
2022/02/02 01:28:38;;;;;;;;;5.50;5.50;;;;;13.06;65.99;101943.56;4886001;29;45322;-74
2022/02/02 01:31:04;;;;;;;;;7.25;5.50;;;;;13.08;66.11;101941.75;4885686;29;46177;-74
2022/02/02 01:33:31;;;;;;;;;5.25;4.00;;;;;13.06;66.29;101945.38;4885153;29;45606;-74
2022/02/02 01:35:57;;;;;;;;;3.50;3.50;;;;;13.05;66.45;101943.66;4885883;29;45383;-74
2022/02/02 01:38:25;;;;;;;;;5.75;5.75;;;;;13.07;66.04;101937.31;4884354;29;45488;-74
2022/02/02 01:40:56;;;;;;;;;5.00;5.00;;;;;13.05;66.01;101935.59;4885123;29;46402;-73
2022/02/02 01:43:27;;;;;;;;;6.75;6.75;;;;;13.05;66.02;101939.16;4882066;29;45595;-74
2022/02/02 01:45:57;;;;;;;;;7.00;7.00;;;;;13.06;66.04;101954.31;4884783;29;45309;-74
2022/02/02 01:48:39;;;;;;;;;9.00;6.00;;;;;13.06;66.02;101948.06;4885505;29;45586;-74
2022/02/02 01:56:10;;;;;;;;;7.25;6.00;;;;;13.13;65.90;101952.34;4883841;29;45484;-74
2022/02/02 02:01:17;;;;;;;;;6.75;6.75;;;;;13.13;65.93;101952.34;4885020;29;45434;-74
2022/02/02 02:03:43;;;;;;;;;5.50;4.00;;;;;13.09;65.95;101942.63;4884851;29;45338;-74
2022/02/02 02:06:08;;;;;;;;;7.25;6.50;;;;;13.14;66.02;101952.31;4884486;29;45823;-74
2022/02/02 02:08:38;;;;;;;;;7.25;7.25;;;;;13.13;66.02;101952.34;4885493;29;45309;-74
2022/02/02 02:11:06;;;;;;;;;8.50;7.00;;;;;13.14;65.89;101959.50;4884205;29;45320;-73
2022/02/02 02:16:08;;;;;;;;;6.75;6.75;;;;;13.10;65.97;101960.50;4885211;29;45413;-74
2022/02/02 02:18:34;;;;;;;;;12.00;6.75;;;;;13.11;66.05;101957.78;4899305;29;45712;-73
2022/02/02 02:20:59;;;;;;;;;5.75;5.75;;;;;13.11;66.09;101951.53;4883964;29;46123;-74
2022/02/02 02:23:25;;;;;;;;;9.50;8.50;;;;;13.14;65.97;101946.09;4899166;29;45742;-74
2022/02/02 02:25:51;;;;;;;;;5.50;5.25;;;;;13.13;65.90;101944.31;4884607;29;45389;-74
2022/02/02 02:30:57;;;;;;;;;9.75;9.00;;;;;13.11;66.09;101935.44;4884239;29;45884;-74
2022/02/02 02:38:53;;;;;;;;;9.25;8.75;;;;;13.08;66.32;101936.41;4879981;29;45456;-74
2022/02/02 03:30:08;;;;;;;;;14.50;13.00;;;;;13.10;66.48;101942.59;4880240;29;45482;-73
2022/02/02 03:52:16;;;;;;;;;14.00;10.25;;;;;13.07;67.13;101952.53;4880728;29;45369;-73
2022/02/02 03:59:38;;;;;;;;;10.00;9.75;;;;;13.07;66.57;101953.41;4874755;29;45338;-73
2022/02/02 04:04:54;;;;;;;;;10.75;8.00;;;;;13.04;66.84;101960.63;4882906;29;45201;-74
2022/02/02 04:07:31;;;;;;;;;9.00;8.00;;;;;12.99;66.67;101941.97;4884049;29;45499;-74
2022/02/02 04:09:56;;;;;;;;;7.50;7.00;;;;;13.03;66.93;101962.44;4882784;29;45759;-74
2022/02/02 04:12:50;;;;;;;;;8.50;6.75;;;;;13.04;66.55;101971.34;4885902;29;45294;-73
2022/02/02 04:16:58;;;;;;;;;9.50;8.00;;;;;13.04;66.66;101972.22;4877226;29;46149;-73
2022/02/02 04:37:21;;;;;;;;;11.25;8.25;;;;;13.05;66.79;101986.53;4876534;29;45467;-73
2022/02/02 04:54:14;;;;;;;;;7.00;7.00;;;;;13.02;66.31;101967.84;4883984;29;45490;-74
2022/02/02 04:57:12;;;;;;;;;8.00;6.50;;;;;13.05;66.57;101955.22;4885204;29;45483;-74
2022/02/02 05:05:35;;;;;;;;;10.50;9.00;;;;;13.07;66.36;101956.06;4884455;29;45490;-73
2022/02/02 05:10:40;;;;;;;;;10.00;8.25;;;;;13.07;66.46;101947.16;4884712;29;45473;-73
2022/02/02 05:50:33;;;;;;;;;13.75;9.50;;;;;13.12;66.09;101993.50;4881890;29;45508;-73
2022/02/02 05:53:00;;;;;;;;;15.00;15.00;;;;;13.12;65.87;101989.00;4880892;29;45289;-73
2022/02/02 05:55:27;;;;;;;;;9.25;9.25;;;;;13.12;65.93;101997.06;4883307;29;47315;-73
2022/02/02 05:57:56;;;;;;;;;10.50;9.50;;;;;13.13;65.91;102003.28;4884700;29;45385;-73
2022/02/02 06:00:22;;;;;;;;;11.50;8.00;;;;;13.13;65.91;102005.97;4884202;29;45483;-73
2022/02/02 06:02:53;;;;;;;;;8.00;8.00;;;;;13.14;65.83;102000.56;4885516;29;45379;-73
2022/02/02 06:05:21;;;;;;;;;10.50;8.50;;;;;13.15;65.79;102006.84;4885058;29;46026;-73
2022/02/02 06:07:51;;;;;;;;;11.00;8.25;;;;;13.16;65.83;102006.81;4885199;29;45317;-73
2022/02/02 06:10:18;;;;;;;;;8.75;8.25;;;;;13.16;65.86;102004.13;4882928;29;45445;-73
2022/02/02 06:12:44;;;;;;;;;9.50;8.00;;;;;13.11;65.93;101999.78;4884419;29;45307;-73
2022/02/02 06:15:15;;;;;;;;;8.00;8.00;;;;;13.14;66.01;102007.75;4884083;29;46147;-73
2022/02/02 06:17:45;;;;;;;;;5.50;5.00;;;;;13.15;66.00;102009.53;4885047;29;45574;-73
2022/02/02 06:20:11;;;;;;;;;4.25;4.25;;;;;13.14;65.87;102013.97;4884515;29;45386;-73
2022/02/02 06:22:51;;;;;;;;;6.00;6.00;;;;;13.14;66.01;102016.66;4885098;29;45264;-73
2022/02/02 06:25:22;;;;;;;;;6.00;4.75;;;;;13.18;65.72;102019.28;4882432;29;45641;-73
2022/02/02 06:27:57;;;;;;;;;6.00;4.00;;;;;13.16;65.72;102019.31;4884763;29;45391;-73
2022/02/02 06:30:24;;;;;;;;;5.75;5.75;;;;;13.19;65.84;102021.06;4883811;29;45252;-73
2022/02/02 06:32:52;;;;;;;;;7.50;5.75;;;;;13.19;65.75;102024.59;4884906;29;45642;-73
2022/02/02 06:35:19;;;;;;;;;6.00;5.00;;;;;13.20;65.56;102033.53;4884568;29;47119;-73
2022/02/02 06:37:45;;;;;;;;;5.25;5.25;;;;;13.19;65.44;102026.41;4884589;29;45507;-73
2022/02/02 06:40:12;;;;;;;;;4.25;4.25;;;;;13.18;65.67;102016.59;4883904;29;45413;-73
2022/02/02 06:42:39;;;;;;;;;4.50;4.50;;;;;13.20;65.71;102033.53;4884324;29;45427;-73
2022/02/02 06:45:06;;;;;;;;;7.00;5.50;;;;;13.19;65.87;102031.78;4879549;29;46043;-73
2022/02/02 06:47:33;;;;;;;;;8.25;3.50;;;;;13.20;65.71;102026.38;4877838;29;45420;-73
2022/02/02 06:50:10;;;;;;;;;8.50;4.00;;;;;13.19;65.53;102032.66;4884355;29;45397;-73
2022/02/02 06:53:03;;;;;;;;;5.00;5.00;;;;;13.17;65.55;102029.13;4884292;29;45391;-73
2022/02/02 06:55:36;;;;;;;;;6.25;5.25;;;;;13.17;65.39;102039.84;4876242;29;45434;-73
2022/02/02 06:58:19;;;;;;;;;4.50;4.50;;;;;13.14;65.51;102029.19;4883926;29;45433;-73
2022/02/02 07:04:02;;;;;;;;;4.25;3.50;;;;;13.18;65.80;102036.28;4872125;29;45465;-73
2022/02/02 07:06:37;;;;;;;;;3.25;2.00;;;;;13.16;65.81;102047.03;4883977;29;45961;-73
2022/02/02 07:14:38;;;;;;;;;4.25;4.25;;;;;13.18;65.84;102059.50;4876280;29;45566;-73
2022/02/02 07:22:47;;;;;;;;;2.50;2.50;;;;;13.23;65.72;102069.22;4882217;29;45601;-78
2022/02/02 07:27:43;;;;;;;;;2.00;2.00;;;;;13.22;65.83;102061.22;4883485;29;45321;-75
2022/02/02 07:30:46;;;;;;;;;14.75;11.75;;;;;13.22;66.02;102061.22;4883817;29;45538;-75
2022/02/02 07:33:12;;;;;;;;;18.25;15.50;;;;;13.23;65.95;102063.84;4879835;29;48306;-78
2022/02/02 07:38:59;;;;;;;;;6.00;4.00;;;;;13.21;65.76;102072.84;4862518;29;46891;-82
2022/02/02 07:41:35;;;;;;;;;5.00;3.25;;;;;13.23;65.94;102079.94;4871289;29;45701;-79
2022/02/02 07:44:09;;;;;;;;;6.50;6.50;;;;;13.26;65.91;102087.03;4886547;29;45410;-77
2022/02/02 07:46:37;;;;;;;;;5.00;5.00;;;;;13.24;66.03;102083.50;4886527;29;45315;-77
2022/02/02 07:49:06;;;;;;;;;7.50;6.00;;;;;13.23;66.23;102085.31;4885437;29;46094;-80
2022/02/02 07:51:36;;;;;;;;;4.75;2.50;;;;;13.23;66.08;102093.34;4873591;29;45301;-81
2022/02/02 07:54:04;;;;;;;;;3.00;3.00;;;;;13.22;66.16;102096.94;4870871;29;45532;-76
2022/02/02 07:56:39;;;;;;;;;4.50;3.75;;;;;13.24;66.11;102091.53;4881523;29;45596;-76
2022/02/02 08:01:45;;;;;;;;;4.00;2.75;;;;;13.23;66.16;102084.41;4885992;29;45346;-75
2022/02/02 08:04:12;;;;;;;;;2.00;2.00;;;;;13.25;65.93;102085.28;4882628;29;45538;-76
2022/02/02 08:06:40;;;;;;;;;3.00;1.75;;;;;13.25;66.20;102085.28;4883201;29;45690;-79
2022/02/02 08:09:06;;;;;;;;;2.50;2.50;;;;;13.22;66.22;102086.22;4879198;29;45457;-79
2022/02/02 08:11:34;;;;;;;;;3.25;2.25;;;;;13.26;66.12;102087.91;4883947;29;45180;-79
2022/02/02 08:14:01;;;;;;;;;3.00;1.00;;;;;13.22;66.23;102083.53;4880882;29;48363;-79
2022/02/02 08:16:29;;;;;;;;;2.25;2.25;;;;;13.20;66.10;102079.09;4879694;29;45395;-79
2022/02/02 08:18:55;;;;;;;;;2.75;2.75;;;;;13.29;66.05;102097.69;4885572;29;47019;-79
2022/02/02 08:21:21;;;;;;;;;3.00;3.00;;;;;13.24;66.02;102088.88;4884248;29;45524;-79
2022/02/02 08:23:47;;;;;;;;;4.00;2.25;;;;;13.28;66.15;102110.22;4886150;29;45470;-78
2022/02/02 08:26:15;;;;;;;;;2.00;2.00;;;;;13.28;66.18;102110.22;4884046;29;45437;-79
2022/02/02 08:28:45;;;;;;;;;3.00;3.00;;;;;13.28;66.07;102106.63;4886047;29;46068;-78
2022/02/02 08:31:11;;;;;;;;;4.00;4.00;;;;;13.24;65.97;102104.94;4881782;29;45372;-79
2022/02/02 08:33:43;;;;;;;;;3.00;3.00;;;;;13.26;66.15;102105.78;4886230;29;45482;-70
2022/02/02 08:36:13;;;;;;;;;4.75;3.00;;;;;13.29;66.18;102105.72;4884356;29;46569;-72
2022/02/02 08:41:13;;;;;;;;;3.50;3.50;;;;;13.29;66.07;102111.97;4885312;29;45449;-70
2022/02/02 08:46:48;;;;;;;;;5.00;4.50;;;;;13.29;66.06;102116.47;4845474;29;45474;-70
2022/02/02 08:49:16;;;;;;;;;6.00;4.00;;;;;13.23;66.13;102112.13;4845588;29;48624;-70
2022/02/02 08:51:45;;;;;;;;;4.00;3.50;;;;;13.23;65.87;102113.91;4856870;29;45493;-70
2022/02/02 08:57:15;;;;;;;;;6.75;5.25;;;;;13.22;66.16;102113.03;4885698;29;45233;-70
2022/02/02 08:59:28;;;;;;;;;6.75;5.00;;;;;13.22;65.98;102112.16;4886930;29;45417;-70
2022/02/02 09:01:56;;;;;;;;;4.00;4.00;;;;;13.21;66.21;102103.22;4883061;29;45570;-67
2022/02/02 09:07:08;;;;;;;;;2.50;2.00;;;;;13.26;66.03;102105.78;4878091;29;45282;-66
2022/02/02 09:20:58;;;;;;;;;6.75;3.75;;;;;13.18;65.62;102114.03;4883871;29;45532;-70
2022/02/02 09:25:42;;;;;;;;;4.75;4.75;;;;;13.19;65.71;102112.22;4883853;29;45468;-70
2022/02/02 09:36:28;;;;;;;;;4.50;2.75;;;;;13.14;65.79;102101.59;4875140;29;45519;-70
2022/02/02 09:38:57;;;;;;;;;5.50;5.50;;;;;13.14;65.47;102099.78;4875087;29;45522;-69
2022/02/02 09:41:42;;;;;;;;;4.75;3.25;;;;;13.22;65.29;102114.84;4884108;29;47242;-69
2022/02/02 09:44:11;;;;;;;;;5.25;4.00;;;;;13.18;65.65;102111.34;4883084;29;45626;-69
2022/02/02 09:46:54;;;;;;;;;3.25;3.00;;;;;13.21;65.34;102110.38;4881552;29;45425;-69
2022/02/02 09:49:29;;;;;;;;;3.25;3.00;;;;;13.19;65.31;102101.50;4884186;29;45943;-72
2022/02/02 09:52:02;;;;;;;;;4.25;4.00;;;;;13.21;65.43;102110.38;4882175;29;46428;-68
2022/02/02 09:54:41;;;;;;;;;3.50;3.50;;;;;13.20;65.46;102112.19;4872646;29;46133;-69
2022/02/02 10:03:21;;;;;;;;;2.75;2.75;;;;;13.25;65.42;102126.38;4881447;29;46225;-70
2022/02/02 10:05:13;;;;;;;;;4.25;4.00;;;;;13.29;65.20;102114.66;4871873;29;45697;-68
2022/02/02 10:15:28;;;;;;;;;5.00;5.00;;;;;13.36;65.09;102133.34;4882971;29;45305;-68
2022/02/02 10:18:00;;;;;;;;;3.75;2.75;;;;;13.32;65.00;102133.41;4881879;29;45441;-68
2022/02/02 10:20:28;;;;;;;;;3.00;3.00;;;;;13.33;65.08;102128.91;4883921;29;45426;-68
2022/02/02 10:22:57;;;;;;;;;2.75;2.75;;;;;13.33;65.27;102137.84;4897457;29;48539;-68
2022/02/02 10:25:24;;;;;;;;;6.00;4.25;;;;;13.32;65.17;102132.53;4883999;29;45340;-68
2022/02/02 10:27:50;;;;;;;;;4.00;2.00;;;;;13.31;64.96;102131.63;4884070;29;45369;-68
2022/02/02 10:30:18;;;;;;;;;5.00;3.25;;;;;13.28;65.05;102133.44;4881257;29;45606;-68
2022/02/02 10:32:46;;;;;;;;;6.25;5.25;;;;;13.26;65.36;102132.59;4873527;29;45391;-68
2022/02/02 10:35:33;;;;;;;;;4.00;4.00;;;;;13.27;64.77;102137.94;4880403;29;45722;-68
2022/02/02 10:38:01;;;;;;;;;5.75;4.00;;;;;13.31;65.07;102147.72;4878120;29;45691;-68
2022/02/02 10:40:47;;;;;;;;;3.50;3.50;;;;;13.34;64.99;102161.06;4880909;29;45353;-67
2022/02/02 10:43:41;;;;;;;;;3.25;3.25;;;;;13.35;64.84;102153.91;4884082;29;45549;-67
2022/02/02 10:46:12;;;;;;;;;4.00;4.00;;;;;13.36;64.87;102157.47;4880171;29;45553;-67
2022/02/02 10:48:53;;;;;;;;;3.00;3.00;;;;;13.37;64.81;102154.75;4884467;29;45537;-68
2022/02/02 10:51:34;;;;;;;;;3.00;2.00;;;;;13.36;64.78;102150.28;4882627;29;45390;-66
2022/02/02 10:54:17;;;;;;;;;3.00;3.00;;;;;13.36;64.74;102152.09;4882595;29;46497;-66
2022/02/02 11:06:55;;;;;;;;;6.50;6.00;;;;;13.39;64.30;102135.94;4881738;29;45314;-69
2022/02/02 11:09:21;;;;;;;;;4.50;4.50;;;;;13.38;64.18;102139.53;4882715;29;45632;-69
2022/02/02 11:11:52;;;;;;;;;7.00;5.00;;;;;13.33;64.06;102135.16;4877058;29;45663;-69
2022/02/02 11:14:42;;;;;;;;;6.25;5.25;;;;;13.34;64.57;102146.78;4876791;29;45402;-69
2022/02/02 11:17:23;;;;;;;;;3.75;3.75;;;;;13.31;64.33;102153.06;4879966;29;45304;-68
2022/02/02 11:19:51;;;;;;;;;6.00;5.75;;;;;13.29;64.54;102154.88;4877889;29;45410;-69
2022/02/02 11:22:33;;;;;;;;;4.25;4.25;;;;;13.25;64.53;102142.47;4882909;29;45420;-68
2022/02/02 11:25:04;;;;;;;;;9.00;6.25;;;;;13.28;64.52;102153.13;4881535;29;45525;-68
2022/02/02 11:27:47;;;;;;;;;5.25;5.25;;;;;13.31;64.69;102152.16;4868661;29;45393;-69
2022/02/02 11:30:24;;;;;;;;;5.75;5.75;;;;;13.35;64.77;102148.56;4877078;29;45580;-69
2022/02/02 11:33:11;;;;;;;;;6.00;6.00;;;;;13.38;64.74;102156.53;4880540;29;45564;-69
2022/02/02 11:35:46;;;;;;;;;3.75;3.75;;;;;13.39;64.75;102152.03;4875403;29;47017;-68
2022/02/02 11:38:23;;;;;;;;;5.75;5.00;;;;;13.42;64.25;102149.31;4878416;29;45538;-69
2022/02/02 11:41:04;;;;;;;;;4.75;4.50;;;;;13.45;64.28;102151.91;4895838;29;45440;-68
2022/02/02 11:46:55;;;;;;;;;3.75;3.00;;;;;13.48;64.45;102143.78;4876238;29;46223;-69
2022/02/02 11:49:39;;;;;;;;;3.50;1.75;;;;;13.48;64.24;102144.69;4881211;29;45478;-69
2022/02/02 11:52:05;;;;;;;;;3.00;2.00;;;;;13.46;64.15;102141.13;4875187;29;47102;-69
2022/02/02 11:54:30;;;;;;;;;1.75;1.75;;;;;13.46;64.31;102146.50;4879541;29;45593;-68
2022/02/02 11:56:59;;;;;;;;;2.00;2.00;;;;;13.47;64.30;102142.03;4881456;29;45471;-68
2022/02/02 12:00:31;;;;;;;;;2.50;2.50;;;;;13.48;64.34;102139.31;4882617;29;45368;-69
2022/02/02 12:07:58;;;;;;;;;1.00;1.00;;;;;13.48;64.06;102146.47;4882414;29;45493;-69
2022/02/02 12:35:57;;;;;;;;;2.00;2.00;;;;;13.45;63.89;102146.56;4874174;29;45763;-65
2022/02/02 12:57:44;;;;;;;;;3.00;3.00;;;;;13.39;63.53;102117.19;4880639;29;46022;-69
2022/02/02 13:03:00;;;;;;;;;1.25;1.25;;;;;13.36;63.64;102117.25;4872393;29;45854;-68
2022/02/02 13:05:25;;;;;;;;;3.25;3.00;;;;;13.32;63.39;102111.94;4882076;29;46006;-69
2022/02/02 13:07:56;;;;;;;;;1.00;1.00;;;;;13.38;63.48;102110.03;4882056;29;45503;-69
2022/02/02 13:10:24;;;;;;;;;2.25;2.00;;;;;13.39;63.18;102107.31;4880208;29;45536;-68
2022/02/02 13:23:35;;;;;;;;;4.25;4.00;;;;;13.47;63.27;102118.75;4880850;29;45664;-70
2022/02/02 13:26:07;;;;;;;;;4.75;3.25;;;;;13.45;63.28;102109.00;4880563;29;45827;-70
2022/02/02 13:28:49;;;;;;;;;2.00;2.00;;;;;13.47;62.99;102116.09;4881145;29;45836;-70
2022/02/02 13:34:33;;;;;;;;;2.00;1.00;;;;;13.45;63.14;102120.59;4875397;29;45577;-70
2022/02/02 13:47:58;;;;;;;;;2.25;2.25;;;;;13.41;63.72;102115.34;4881411;29;45570;-68
2022/02/02 13:50:43;;;;;;;;;2.50;2.50;;;;;13.43;62.89;102113.50;4879624;29;46936;-68
2022/02/02 14:31:14;;;;;;;;;2.00;0.00;;;;;13.43;61.79;102109.03;4880315;29;45536;-68
2022/02/02 14:33:45;;;;;;;;;0.00;0.00;;;;;13.41;61.61;102104.59;4883838;29;45589;-68
2022/02/02 14:36:15;;;;;;;;;0.00;0.00;;;;;13.47;61.74;102120.56;4882526;29;45384;-64
2022/02/02 14:38:52;;;;;;;;;1.00;0.00;;;;;13.47;61.51;102116.09;4877012;29;46947;-67
2022/02/02 14:41:31;;;;;;;;;0.00;0.00;;;;;13.46;61.43;102119.66;4870686;29;45622;-68
2022/02/02 14:46:30;;;;;;;;;1.00;1.00;;;;;13.51;61.41;102133.00;4882987;29;46400;-68
2022/02/02 14:49:03;;;;;;;;;0.50;0.50;;;;;13.46;61.37;102125.03;4883375;29;45987;-68
2022/02/02 14:51:39;;;;;;;;;0.00;0.00;;;;;13.46;61.41;102122.34;4883684;29;45380;-68
2022/02/02 15:05:33;;;;;;;;;0.00;0.00;;;;;13.47;61.14;102128.63;4882380;29;45659;-68
2022/02/02 15:28:47;;;;;;;;;1.00;1.00;;;;;13.49;60.91;102126.78;4882134;29;45567;-68
2022/02/02 15:31:12;;;;;;;;;0.00;0.00;;;;;13.50;60.23;102124.06;4890403;29;47236;-68
2022/02/02 15:33:38;;;;;;;;;0.00;0.00;;;;;13.51;60.44;102131.22;4879720;29;45500;-68
2022/02/02 15:36:26;;;;;;;;;0.00;0.00;;;;;13.51;60.51;102135.66;4883019;29;45436;-69
2022/02/02 15:38:52;;;;;;;;;0.75;0.75;;;;;13.46;60.52;102132.22;4876517;29;45553;-68
2022/02/02 15:41:27;;;;;;;;;0.00;0.00;;;;;13.48;60.60;102139.31;4882592;29;46350;-68
2022/02/02 15:45:02;;;;;;;;;0.50;0.50;;;;;13.48;60.64;102136.63;4882798;29;45696;-68
2022/02/02 16:05:16;;;;;;;;;1.00;1.00;;;;;13.44;60.58;102102.72;4883367;29;45606;-68
2022/02/02 16:07:41;;;;;;;;;1.00;1.00;;;;;13.43;60.34;102100.09;4884333;29;45372;-68
2022/02/02 16:10:14;;;;;;;;;0.25;0.25;;;;;13.43;60.48;102109.03;4886058;29;45446;-68
2022/02/02 16:12:45;;;;;;;;;2.00;0.50;;;;;13.39;60.30;102107.31;4886373;29;46109;-68
2022/02/02 16:18:02;;;;;;;;;1.00;1.00;;;;;13.42;60.15;102099.22;4884359;29;45554;-68
2022/02/02 16:36:25;;;;;;;;;1.75;1.00;;;;;13.40;59.99;102103.72;4881005;29;45386;-68
2022/02/02 16:38:59;;;;;;;;;1.75;1.00;;;;;13.38;60.06;102094.84;4874751;29;46894;-68
2022/02/02 16:44:08;;;;;;;;;2.00;2.00;;;;;13.40;59.86;102081.38;4874229;29;45826;-68
2022/02/02 16:46:34;;;;;;;;;1.00;1.00;;;;;13.39;59.87;102090.34;4882637;29;45485;-68
2022/02/02 16:49:00;;;;;;;;;4.00;2.75;;;;;13.39;59.69;102096.59;4885913;29;45371;-68
2022/02/02 16:51:25;;;;;;;;;2.50;2.00;;;;;13.38;59.85;102091.25;4886014;29;45514;-68
2022/02/02 16:53:53;;;;;;;;;2.00;1.50;;;;;13.37;59.40;102084.16;4885187;29;46584;-68
2022/02/02 16:56:34;;;;;;;;;2.50;1.50;;;;;13.34;59.49;102079.72;4883817;29;45790;-68
2022/02/02 17:31:44;;;;;;;;;1.75;1.75;;;;;13.24;58.74;102076.31;4886118;29;45285;-68
2022/02/02 17:39:51;;;;;;;;;1.00;1.00;;;;;13.26;58.24;102095.94;4875443;29;45491;-68
2022/02/02 18:19:54;;;;;;;;;2.25;2.25;;;;;13.16;58.38;102100.66;4873034;29;45388;-69
2022/02/02 18:22:24;;;;;;;;;1.00;1.00;;;;;13.11;58.09;102090.91;4885031;29;45601;-71
2022/02/02 18:25:02;;;;;;;;;2.00;2.00;;;;;13.12;58.39;102096.25;4885586;29;45505;-70
2022/02/02 18:27:39;;;;;;;;;1.75;1.50;;;;;13.15;58.31;102098.00;4884025;29;45812;-66
2022/02/02 18:30:58;;;;;;;;;2.00;2.00;;;;;13.13;58.06;102092.66;4885180;29;45173;-69
2022/02/02 18:35:19;;;;;;;;;5.00;1.75;;;;;13.15;57.97;102084.59;4885360;29;45351;-68
2022/02/02 18:53:44;;;;;;;;;4.00;3.00;;;;;13.10;57.49;102087.38;4884271;29;45327;-70
2022/02/02 18:56:49;;;;;;;;;4.25;3.25;;;;;13.12;57.79;102082.84;4882977;29;45478;-68
2022/02/02 18:59:00;;;;;;;;;3.00;3.00;;;;;13.08;58.12;102078.47;4876321;29;45403;-70
2022/02/02 19:01:52;;;;;;;;;2.75;2.75;;;;;13.10;57.81;102091.84;4884319;29;45451;-70
2022/02/02 19:15:49;;;;;;;;;6.50;5.25;;;;;13.03;57.81;102091.09;4875835;29;45793;-68
2022/02/02 19:40:00;;;;;;;;;5.00;5.00;;;;;12.92;57.58;102096.66;4879652;29;45540;-68
2022/02/02 20:07:07;;;;;;;;;3.50;2.75;;;;;12.86;57.57;102074.47;4879379;29;45570;-66
2022/02/02 20:11:30;;;;;;;;;4.00;4.00;;;;;12.87;57.72;102087.84;4877667;29;45473;-69
2022/02/02 20:13:56;;;;;;;;;3.00;3.00;;;;;12.86;57.72;102080.72;4879117;29;45546;-68
2022/02/02 20:16:21;;;;;;;;;4.00;4.00;;;;;12.85;57.57;102084.31;4879097;29;46073;-69
2022/02/02 20:18:49;;;;;;;;;4.00;4.00;;;;;12.88;57.51;102094.97;4879019;29;45760;-69
2022/02/02 20:21:18;;;;;;;;;3.25;3.00;;;;;12.88;57.72;102092.31;4870346;29;45733;-69
2022/02/02 20:23:47;;;;;;;;;3.00;3.00;;;;;12.89;57.77;102104.75;4872258;29;45977;-69
2022/02/02 20:26:16;;;;;;;;;3.00;3.00;;;;;12.91;57.48;102105.66;4875127;29;45780;-68
2022/02/02 20:28:41;;;;;;;;;3.00;3.00;;;;;12.92;57.45;102103.84;4875668;29;45673;-68
2022/02/02 20:31:07;;;;;;;;;3.75;3.00;;;;;12.89;57.46;102090.50;4878820;29;45771;-67
2022/02/02 20:33:32;;;;;;;;;3.00;3.00;;;;;12.90;57.37;102098.50;4877946;29;45764;-67
2022/02/02 20:35:58;;;;;;;;;3.00;3.00;;;;;12.93;57.40;102098.44;4872657;29;47325;-69
2022/02/02 20:38:23;;;;;;;;;4.25;3.25;;;;;12.82;57.06;102089.75;4878982;29;45820;-68
2022/02/02 20:40:49;;;;;;;;;3.00;3.00;;;;;12.93;57.25;102102.91;4878596;29;45554;-68
2022/02/02 20:43:27;;;;;;;;;3.00;3.00;;;;;12.88;56.96;102099.44;4879185;29;45819;-69
2022/02/02 21:10:17;;;;;;;;;2.00;2.00;;;;;12.82;56.51;102096.91;4882138;29;45562;-69
2022/02/02 21:15:30;;;;;;;;;3.50;2.00;;;;;12.86;56.28;102093.22;4876129;29;45423;-67
2022/02/02 21:18:00;;;;;;;;;4.00;2.00;;;;;12.86;56.26;102093.22;4879366;29;47101;-66
2022/02/02 21:22:59;;;;;;;;;2.00;2.00;;;;;12.83;55.86;102088.84;4881201;29;45545;-70
2022/02/02 21:28:09;;;;;;;;;2.00;2.00;;;;;12.82;56.25;102088.88;4881098;29;45782;-68
2022/02/02 21:30:38;;;;;;;;;1.75;1.75;;;;;12.81;56.44;102085.28;4880697;29;45504;-67
2022/02/02 21:33:04;;;;;;;;;3.00;2.00;;;;;12.81;56.05;102085.28;4882477;29;45435;-67
2022/02/02 21:35:29;;;;;;;;;1.75;0.75;;;;;12.79;56.08;102071.91;4881799;29;45498;-69
2022/02/02 21:38:09;;;;;;;;;2.00;2.00;;;;;12.81;56.31;102084.41;4881652;29;46403;-69
2022/02/02 21:40:36;;;;;;;;;2.00;2.00;;;;;12.76;56.14;102073.78;4880923;29;45778;-69
2022/02/02 21:43:01;;;;;;;;;2.00;2.00;;;;;12.80;56.12;102083.53;4880993;29;45511;-67
2022/02/02 21:45:28;;;;;;;;;1.50;1.00;;;;;12.78;56.07;102077.31;4881549;29;45448;-68
2022/02/02 21:47:55;;;;;;;;;3.75;2.75;;;;;12.74;56.15;102070.25;4880112;29;46102;-66
2022/02/02 21:50:21;;;;;;;;;2.75;2.25;;;;;12.76;56.21;102073.78;4880223;29;45392;-70
2022/02/02 21:52:48;;;;;;;;;4.00;4.00;;;;;12.74;56.22;102076.47;4881238;29;45616;-70
2022/02/02 21:55:14;;;;;;;;;3.00;3.00;;;;;12.73;56.33;102079.19;4881239;29;45942;-69
2022/02/02 21:57:40;;;;;;;;;4.25;4.00;;;;;12.71;56.23;102073.00;4881127;29;46109;-69
2022/02/02 22:00:08;;;;;;;;;5.00;3.50;;;;;12.71;56.22;102075.66;4894930;29;45888;-69
2022/02/02 22:02:35;;;;;;;;;2.00;2.00;;;;;12.72;56.37;102072.97;4880162;29;45714;-69
2022/02/02 22:05:02;;;;;;;;;5.00;4.75;;;;;12.73;56.43;102068.47;4880165;29;45874;-69
2022/02/02 22:07:28;;;;;;;;;2.50;2.00;;;;;12.72;56.25;102069.41;4880466;29;47145;-69
2022/02/02 22:09:56;;;;;;;;;10.25;7.25;;;;;12.68;56.54;102057.88;4881449;29;45732;-69
2022/02/02 22:12:22;;;;;;;;;6.00;6.00;;;;;12.65;56.79;102057.94;4879970;29;45482;-69
2022/02/02 22:14:51;;;;;;;;;7.50;7.00;;;;;12.63;56.99;102054.41;4881362;29;45493;-68
2022/02/02 22:17:17;;;;;;;;;8.00;8.00;;;;;12.64;57.19;102060.63;4884110;29;45408;-68
2022/02/02 22:19:43;;;;;;;;;7.50;7.00;;;;;12.59;57.33;102050.00;4884324;29;45656;-68
2022/02/02 22:22:08;;;;;;;;;7.00;6.25;;;;;12.62;57.15;102059.78;4884429;29;45319;-68
2022/02/02 22:24:37;;;;;;;;;11.75;9.25;;;;;12.63;57.55;102053.50;4884105;29;45733;-68
2022/02/02 22:27:03;;;;;;;;;10.50;8.50;;;;;12.60;57.72;102055.34;4881830;29;45325;-68
2022/02/02 22:29:28;;;;;;;;;9.75;8.75;;;;;12.60;57.74;102049.09;4884493;29;45295;-68
2022/02/02 22:31:54;;;;;;;;;9.00;9.00;;;;;12.58;57.58;102045.59;4883281;29;45375;-68
2022/02/02 22:34:19;;;;;;;;;8.75;7.50;;;;;12.62;57.60;102055.31;4884539;29;45414;-69
2022/02/02 22:36:44;;;;;;;;;8.00;8.00;;;;;12.60;57.63;102055.34;4883623;29;46223;-68